Time;durP1;ratioP1;P1;durP2;ratioP2;P2;SDS_P1;SDS_P2;PMS_P1;PMS_P2;Temp;Humidity;BMP_temperature;BMP_pressure;BME280_temperature;BME280_humidity;BME280_pressure;Samples;Min_cycle;Max_cycle;Signal;HPM_P1;HPM_P2
2023/07/12 01:11:45;;;;;;;24.17;22.17;;;21.70;99.90;;;;;;4980275;28;20449;-95
2023/07/12 01:14:15;;;;;;;25.02;22.83;;;21.60;99.90;;;;;;4982203;28;20031;-93
2023/07/12 01:16:57;;;;;;;25.42;22.98;;;21.50;99.90;;;;;;4992743;28;20053;-95
2023/07/12 01:19:27;;;;;;;24.67;22.67;;;21.50;99.90;;;;;;4978712;28;20034;-93
2023/07/12 01:21:56;;;;;;;26.75;23.30;;;21.40;99.90;;;;;;4966699;28;20031;-93
2023/07/12 01:24:28;;;;;;;25.00;22.75;;;21.50;99.90;;;;;;4946547;28;20035;-93
2023/07/12 01:27:01;;;;;;;24.60;22.55;;;21.60;99.90;;;;;;4946238;28;20026;-93
2023/07/12 01:29:29;;;;;;;24.80;22.50;;;21.60;99.90;;;;;;4961719;28;20099;-94
2023/07/12 01:31:58;;;;;;;25.85;23.45;;;21.70;99.90;;;;;;4961216;28;20046;-93
2023/07/12 01:34:31;;;;;;;26.13;23.65;;;21.60;99.90;;;;;;4945879;28;20380;-93
2023/07/12 01:36:57;;;;;;;25.52;23.23;;;21.60;99.90;;;;;;4961452;28;20027;-92
2023/07/12 01:39:24;;;;;;;25.77;23.50;;;21.50;99.90;;;;;;4945420;28;20031;-93
2023/07/12 01:41:53;;;;;;;26.00;23.50;;;21.50;99.90;;;;;;4961427;28;20027;-94
2023/07/12 01:44:19;;;;;;;26.05;23.65;;;21.50;99.90;;;;;;4945548;28;20023;-93
2023/07/12 01:46:46;;;;;;;25.75;23.15;;;21.50;99.90;;;;;;4945137;28;20038;-93
2023/07/12 01:49:13;;;;;;;26.67;23.92;;;21.40;99.90;;;;;;4961355;28;20475;-93
2023/07/12 01:51:39;;;;;;;26.52;23.88;;;21.40;99.90;;;;;;4945181;28;20031;-93
2023/07/12 01:54:08;;;;;;;26.92;24.40;;;21.30;99.90;;;;;;4961267;28;20077;-94
2023/07/12 01:56:35;;;;;;;25.58;23.27;;;21.30;99.90;;;;;;4945194;28;20050;-93
2023/07/12 01:59:01;;;;;;;25.92;23.50;;;21.30;99.90;;;;;;4960940;28;20042;-95
2023/07/12 02:01:28;;;;;;;26.17;23.77;;;21.30;99.90;;;;;;4945319;28;20032;-94
2023/07/12 02:03:54;;;;;;;26.83;24.05;;;21.20;99.90;;;;;;4961123;28;20066;-94
2023/07/12 02:06:20;;;;;;;26.48;23.88;;;21.10;99.90;;;;;;4945219;28;20431;-94
2023/07/12 02:08:47;;;;;;;28.48;25.10;;;21.10;99.90;;;;;;4960924;28;20038;-95
2023/07/12 02:11:14;;;;;;;26.42;23.80;;;21.20;99.90;;;;;;4960701;28;20047;-94
2023/07/12 02:13:40;;;;;;;25.88;23.70;;;21.20;99.90;;;;;;4944905;28;20039;-94
2023/07/12 02:16:07;;;;;;;26.05;23.50;;;21.30;99.90;;;;;;4960801;28;20045;-94
2023/07/12 02:18:35;;;;;;;26.02;23.77;;;21.40;99.90;;;;;;4945084;28;20031;-92
2023/07/12 02:21:02;;;;;;;26.08;23.50;;;21.30;99.90;;;;;;4960646;28;20027;-92
2023/07/12 02:23:35;;;;;;;26.80;24.05;;;21.20;99.90;;;;;;4961054;28;20548;-93
2023/07/12 02:26:06;;;;;;;25.83;23.52;;;21.20;99.90;;;;;;4960686;28;20027;-94
2023/07/12 02:28:32;;;;;;;26.63;23.98;;;21.20;99.90;;;;;;4944428;28;20027;-94
2023/07/12 02:31:23;;;;;;;26.65;24.00;;;21.20;99.90;;;;;;4960284;28;20027;-95
2023/07/12 02:33:51;;;;;;;26.20;23.17;;;21.30;99.90;;;;;;4944475;28;20066;-93
2023/07/12 02:36:18;;;;;;;25.58;22.98;;;21.30;99.90;;;;;;4960266;28;20031;-93
2023/07/12 02:38:46;;;;;;;25.90;23.20;;;21.30;99.90;;;;;;4960162;28;20031;-94
2023/07/12 02:41:14;;;;;;;25.27;22.90;;;21.20;99.90;;;;;;4944282;28;20074;-94
2023/07/12 02:43:46;;;;;;;25.42;23.10;;;21.10;99.90;;;;;;4960274;28;20558;-94
2023/07/12 02:46:13;;;;;;;25.98;23.45;;;21.10;99.90;;;;;;4944312;28;20035;-94
2023/07/12 02:48:39;;;;;;;26.77;23.33;;;21.10;99.90;;;;;;4944182;28;20027;-93
2023/07/12 02:51:05;;;;;;;25.23;22.88;;;21.20;99.90;;;;;;4960094;28;20037;-94
2023/07/12 02:53:34;;;;;;;25.30;22.85;;;21.20;99.90;;;;;;4960675;28;20097;-94
2023/07/12 02:56:00;;;;;;;25.00;22.83;;;21.20;99.90;;;;;;4961901;28;20084;-93
2023/07/12 02:58:26;;;;;;;25.95;23.55;;;21.20;99.90;;;;;;4965743;28;20041;-93
2023/07/12 03:00:57;;;;;;;24.98;22.58;;;21.10;99.90;;;;;;4980656;28;20095;-92
2023/07/12 03:03:24;;;;;;;24.45;22.05;;;21.10;99.90;;;;;;4965778;28;20463;-94
2023/07/12 03:05:50;;;;;;;25.95;23.25;;;21.10;99.90;;;;;;4943802;28;20034;-94
2023/07/12 03:08:17;;;;;;;25.80;23.30;;;21.10;99.90;;;;;;4961207;28;20030;-93
2023/07/12 03:10:43;;;;;;;25.48;23.02;;;21.00;99.90;;;;;;4960891;28;20125;-94
2023/07/12 03:13:09;;;;;;;24.08;21.98;;;20.90;99.90;;;;;;4961210;28;20074;-93
2023/07/12 03:15:39;;;;;;;24.88;22.50;;;20.90;99.90;;;;;;4960535;28;20059;-93
2023/07/12 03:18:05;;;;;;;25.20;22.77;;;20.90;99.90;;;;;;4963284;28;20080;-93
2023/07/12 03:20:33;;;;;;;24.70;22.40;;;20.90;99.90;;;;;;4968542;28;20031;-93
2023/07/12 03:22:59;;;;;;;23.95;21.77;;;20.80;99.90;;;;;;4960868;28;20502;-94
2023/07/12 03:25:29;;;;;;;24.35;21.90;;;20.80;99.90;;;;;;4959424;28;20410;-93
2023/07/12 03:27:55;;;;;;;24.55;22.08;;;20.80;99.90;;;;;;4943579;28;20162;-92
2023/07/12 03:30:21;;;;;;;23.95;21.48;;;20.90;99.90;;;;;;4959251;28;20539;-93
2023/07/12 03:32:47;;;;;;;24.67;22.25;;;20.90;99.90;;;;;;4959030;28;20046;-93
2023/07/12 03:35:14;;;;;;;23.90;21.70;;;20.90;99.90;;;;;;4959085;28;20125;-92
2023/07/12 03:37:40;;;;;;;24.20;21.92;;;21.00;99.90;;;;;;4959279;28;20034;-93
2023/07/12 03:40:08;;;;;;;23.20;20.75;;;20.90;99.90;;;;;;4959276;28;20025;-93
2023/07/12 03:42:34;;;;;;;24.00;21.38;;;21.00;99.90;;;;;;4959463;28;20078;-93
2023/07/12 03:45:01;;;;;;;24.80;22.45;;;20.90;99.90;;;;;;4958998;28;20042;-93
2023/07/12 03:47:27;;;;;;;24.08;21.60;;;20.90;99.90;;;;;;4959302;28;20026;-94
2023/07/12 07:59:48;;;;;;;26.45;24.60;;;40.10;90.30;;;;;;4976215;28;20525;-83
2023/07/12 08:02:14;;;;;;;27.02;24.80;;;39.60;90.10;;;;;;4939075;29;20035;-83
2023/07/12 08:04:41;;;;;;;26.33;24.33;;;39.30;90.60;;;;;;4939421;29;20027;-84
2023/07/12 08:07:11;;;;;;;26.30;24.25;;;39.50;89.90;;;;;;4938844;29;20058;-86
2023/07/12 09:58:13;;;;;;;;;;;;;;;;;;;;;
2023/07/12 10:05:22;;;;;;;25.88;24.38;;;38.80;80.50;;;;;;4878504;29;20454;-94
2023/07/12 10:08:31;;;;;;;;;;;;;;;;;;;;;
2023/07/12 10:11:53;;;;;;;26.27;24.58;;;38.80;80.50;;;;;;4883261;29;20567;-92
2023/07/12 10:14:36;;;;;;;24.88;23.38;;;38.90;80.40;;;;;;4866831;29;20037;-94
2023/07/12 10:17:18;;;;;;;;;;;;;;;;;;;;;
2023/07/12 10:20:00;;;;;;;26.88;25.17;;;38.60;81.60;;;;;;5017243;28;20512;-93
2023/07/12 10:22:49;;;;;;;26.85;25.05;;;37.90;81.70;;;;;;4983531;28;20045;-93
2023/07/12 10:26:03;;;;;;;27.35;25.55;;;38.00;83.10;;;;;;5004024;28;20096;-95
2023/07/12 10:44:54;;;;;;;26.27;24.55;;;38.00;81.90;;;;;;5365769;23;20058;-94
2023/07/12 10:47:27;;;;;;;26.90;25.20;;;37.90;83.00;;;;;;5011896;28;20061;-93
2023/07/12 10:50:22;;;;;;;26.25;24.42;;;38.10;82.50;;;;;;5002585;28;20040;-94
2023/07/12 10:53:31;;;;;;;27.52;25.00;;;38.30;81.90;;;;;;5009347;28;20406;-94
2023/07/12 10:56:41;;;;;;;26.75;24.92;;;38.20;81.90;;;;;;5068570;23;20064;-94
2023/07/12 10:59:31;;;;;;;26.42;24.73;;;38.40;82.00;;;;;;4962361;23;20057;-93
2023/07/12 11:05:28;;;;;;;26.02;24.38;;;38.60;80.10;;;;;;5358442;23;20077;-94
2023/07/12 11:07:57;;;;;;;26.85;25.25;;;38.40;80.20;;;;;;4986827;28;20374;-95
2023/07/12 11:10:26;;;;;;;27.40;25.60;;;38.20;80.30;;;;;;4983458;28;20029;-93
2023/07/12 11:15:27;;;;;;;25.30;23.80;;;38.20;80.00;;;;;;5458406;22;20156;-92
2023/07/12 11:18:09;;;;;;;25.92;24.40;;;38.10;80.60;;;;;;5003162;28;20025;-95
2023/07/12 11:20:57;;;;;;;26.48;24.77;;;38.20;80.20;;;;;;5002266;28;20040;-95
2023/07/12 11:23:32;;;;;;;27.75;24.77;;;38.20;79.20;;;;;;5003044;28;20048;-95
2023/07/12 11:26:34;;;;;;;27.33;25.63;;;38.30;79.00;;;;;;5000140;28;20042;-95
2023/07/12 11:29:52;;;;;;;28.05;25.70;;;38.30;79.00;;;;;;4999642;28;20034;-93
2023/07/12 11:32:58;;;;;;;27.63;25.88;;;38.20;79.30;;;;;;5022282;22;20446;-94
2023/07/12 11:35:56;;;;;;;26.85;24.95;;;38.60;78.10;;;;;;4977128;28;20037;-93
2023/07/12 11:38:33;;;;;;;26.48;24.77;;;38.60;77.40;;;;;;5000108;28;20046;-95
2023/07/12 11:41:32;;;;;;;26.70;24.92;;;38.50;76.20;;;;;;4984517;28;20504;-95
2023/07/12 11:44:01;;;;;;;26.90;25.20;;;38.30;76.30;;;;;;4983244;28;20042;-95
2023/07/12 11:46:51;;;;;;;26.02;24.42;;;38.40;76.20;;;;;;4958689;28;20106;-93
2023/07/12 11:54:53;;;;;;;26.70;25.00;;;38.40;76.00;;;;;;5042507;23;20500;-96
2023/07/12 12:15:32;;;;;;;27.63;25.77;;;38.20;75.10;;;;;;4959130;28;20118;-93
2023/07/12 12:18:14;;;;;;;26.98;25.27;;;38.20;74.10;;;;;;4975335;28;20038;-96
2023/07/12 12:21:02;;;;;;;26.88;25.38;;;38.20;74.80;;;;;;4959859;28;20034;-95
2023/07/12 12:23:40;;;;;;;27.05;25.35;;;38.10;74.40;;;;;;4976092;28;20046;-95
2023/07/12 12:26:48;;;;;;;26.83;25.23;;;38.30;74.60;;;;;;4985597;28;20487;-95
2023/07/12 12:29:24;;;;;;;26.38;24.73;;;38.20;74.30;;;;;;4943303;28;20118;-94
2023/07/12 13:26:52;;;;;;;26.50;24.90;;;37.80;74.40;;;;;;4977614;28;20030;-95
2023/07/12 13:29:19;;;;;;;26.55;24.75;;;37.80;75.30;;;;;;4963672;28;20033;-94
2023/07/12 13:31:49;;;;;;;26.23;24.60;;;37.90;74.60;;;;;;4977722;28;20026;-94
2023/07/12 13:34:49;;;;;;;25.73;24.23;;;37.90;74.50;;;;;;4980306;28;20072;-95
2023/07/12 13:48:42;;;;;;;26.38;24.67;;;37.50;74.70;;;;;;5350052;23;20065;-94
2023/07/12 13:51:30;;;;;;;26.60;24.80;;;37.60;74.40;;;;;;5011727;23;20033;-94
2023/07/12 13:54:39;;;;;;;;;;;;;;;;;;;;;
2023/07/12 14:01:31;;;;;;;27.63;25.02;;;37.30;75.70;;;;;;5001890;23;20109;-95
2023/07/12 14:04:02;;;;;;;27.02;25.25;;;37.20;75.50;;;;;;4966374;28;20087;-93
2023/07/12 14:06:28;;;;;;;26.58;24.77;;;37.20;76.10;;;;;;4989785;23;20408;-94
2023/07/12 14:11:55;;;;;;;26.40;24.60;;;36.90;76.90;;;;;;4958337;29;20058;-93
2023/07/12 14:14:21;;;;;;;26.05;24.23;;;36.80;77.50;;;;;;4942566;29;20077;-93
2023/07/12 14:16:48;;;;;;;26.02;24.33;;;36.90;77.90;;;;;;4960074;28;20407;-95
2023/07/12 14:23:48;;;;;;;;;;;37.10;77.60;;;;;;4845958;29;20053;-95
2023/07/12 14:39:45;;;;;;;26.55;24.85;;;36.80;79.70;;;;;;5236609;23;20266;-93
2023/07/12 14:42:35;;;;;;;26.33;24.83;;;36.80;78.30;;;;;;5039053;28;20129;-93
2023/07/12 14:45:01;;;;;;;26.25;24.65;;;36.60;80.00;;;;;;5023295;28;20033;-95
2023/07/12 14:47:33;;;;;;;25.63;23.98;;;36.60;80.90;;;;;;5003312;28;20031;-93
2023/07/12 14:50:12;;;;;;;25.73;24.13;;;36.40;80.70;;;;;;5023786;28;20116;-93
2023/07/12 14:52:39;;;;;;;25.55;23.92;;;36.40;81.10;;;;;;5004672;28;20120;-93
2023/07/12 14:55:17;;;;;;;26.35;24.58;;;36.30;80.80;;;;;;5002322;28;20017;-94
2023/07/12 15:04:21;;;;;;;26.30;24.60;;;36.40;79.80;;;;;;4995112;28;20057;-93
2023/07/12 15:06:48;;;;;;;25.67;24.05;;;36.30;79.70;;;;;;4979589;28;20041;-95
2023/07/12 15:09:14;;;;;;;25.85;24.25;;;36.20;80.30;;;;;;4980636;28;20138;-92
2023/07/12 15:11:48;;;;;;;26.58;24.88;;;36.10;80.30;;;;;;4980183;28;20463;-93
2023/07/12 15:14:14;;;;;;;25.95;24.25;;;36.10;80.10;;;;;;4979542;28;20046;-92
2023/07/12 15:16:44;;;;;;;26.27;24.75;;;36.10;80.50;;;;;;4957157;29;20413;-91
2023/07/12 15:19:10;;;;;;;26.00;24.23;;;36.00;80.80;;;;;;4955981;28;20038;-93
2023/07/12 15:21:38;;;;;;;26.08;24.48;;;36.00;81.00;;;;;;4955859;29;20124;-92
2023/07/12 15:24:04;;;;;;;26.27;24.48;;;35.90;80.50;;;;;;4953037;29;20070;-92
2023/07/12 15:26:47;;;;;;;;;;;;;;;;;;;;;
2023/07/12 18:17:38;;;;;;;27.58;25.70;;;30.30;93.50;;;;;;1109024;23;20331;-93
2023/07/12 18:20:06;;;;;;;28.80;26.33;;;30.10;94.30;;;;;;4957924;29;20511;-94
2023/07/12 18:22:35;;;;;;;31.65;28.40;;;30.00;94.90;;;;;;4959578;28;20042;-94
2023/07/12 18:25:02;;;;;;;30.40;27.85;;;29.90;95.10;;;;;;4961571;28;20045;-95
2023/07/12 18:27:32;;;;;;;30.70;28.08;;;29.90;95.80;;;;;;4957922;28;20027;-94
2023/07/12 18:29:59;;;;;;;30.52;27.90;;;29.80;95.90;;;;;;4960521;29;20035;-93
2023/07/12 18:32:25;;;;;;;29.83;27.27;;;29.70;96.30;;;;;;4958485;29;20023;-94
2023/07/12 18:34:52;;;;;;;28.58;26.20;;;29.60;96.40;;;;;;4959198;29;20463;-93
2023/07/12 18:37:21;;;;;;;27.17;24.92;;;29.60;96.50;;;;;;4972786;28;20003;-92
2023/07/12 18:39:50;;;;;;;28.55;25.75;;;29.40;96.90;;;;;;4971282;29;20036;-92
2023/07/12 18:42:26;;;;;;;28.50;26.30;;;29.30;97.00;;;;;;4958145;29;20102;-93
2023/07/12 18:44:54;;;;;;;27.80;25.60;;;29.30;97.10;;;;;;4958008;29;20038;-94
2023/07/12 18:47:21;;;;;;;26.75;24.85;;;29.20;97.30;;;;;;4962156;28;20007;-92
2023/07/12 18:49:53;;;;;;;26.30;24.50;;;29.10;97.70;;;;;;4941379;29;20122;-91
2023/07/12 18:52:22;;;;;;;27.13;24.70;;;29.00;97.80;;;;;;4957016;29;20034;-90
2023/07/12 18:54:50;;;;;;;25.27;23.58;;;29.00;98.30;;;;;;4941018;29;20035;-89
2023/07/12 18:57:18;;;;;;;25.65;23.85;;;28.90;98.60;;;;;;4956919;28;20373;-92
2023/07/12 18:59:48;;;;;;;25.08;23.27;;;28.90;98.90;;;;;;4957306;29;20066;-92
2023/07/12 19:02:21;;;;;;;24.58;22.83;;;28.80;99.00;;;;;;4940955;29;20137;-91
2023/07/12 19:04:48;;;;;;;24.33;22.73;;;28.80;99.60;;;;;;4941283;29;20039;-91
2023/07/12 19:07:27;;;;;;;23.75;22.20;;;28.70;99.60;;;;;;4953418;28;20019;-92
2023/07/12 19:09:54;;;;;;;23.73;22.13;;;28.70;99.80;;;;;;4922653;29;20032;-91
2023/07/12 19:12:23;;;;;;;24.05;22.50;;;28.60;99.90;;;;;;4938583;29;20428;-90
2023/07/12 19:14:50;;;;;;;23.58;22.08;;;28.50;99.90;;;;;;4922145;29;20118;-91
2023/07/12 19:17:18;;;;;;;23.70;22.20;;;28.50;99.90;;;;;;4940031;29;20477;-91
2023/07/12 19:19:46;;;;;;;23.10;21.55;;;28.50;99.90;;;;;;4943662;29;20051;-91
2023/07/12 19:22:17;;;;;;;22.95;21.52;;;28.40;99.90;;;;;;4946668;29;20504;-90
2023/07/12 19:24:45;;;;;;;23.50;22.00;;;28.30;99.90;;;;;;4944764;29;20086;-91
2023/07/12 19:27:20;;;;;;;23.58;22.08;;;28.30;99.90;;;;;;4959424;28;20031;-91
2023/07/12 19:29:48;;;;;;;23.35;21.85;;;28.20;99.90;;;;;;4964828;28;20504;-91
2023/07/12 19:32:20;;;;;;;23.45;21.75;;;28.10;99.90;;;;;;4961026;28;20034;-90
2023/07/12 19:34:48;;;;;;;23.33;21.83;;;28.10;99.90;;;;;;4944959;28;20055;-90
2023/07/12 19:37:18;;;;;;;22.75;21.23;;;28.00;99.90;;;;;;4944320;28;20027;-90
2023/07/12 19:39:45;;;;;;;22.67;20.83;;;28.00;99.90;;;;;;4944596;28;20038;-91
2023/07/12 19:42:22;;;;;;;22.15;20.75;;;27.90;99.90;;;;;;4960326;28;20035;-90
2023/07/12 19:44:49;;;;;;;22.55;20.88;;;27.80;99.90;;;;;;4945210;28;20034;-89
2023/07/12 19:47:18;;;;;;;21.45;19.85;;;27.80;99.90;;;;;;4943412;28;20037;-89
2023/07/12 19:49:45;;;;;;;21.13;19.73;;;27.80;99.90;;;;;;4940663;29;20023;-90
2023/07/12 19:52:13;;;;;;;21.05;19.65;;;27.70;99.90;;;;;;4940696;29;20054;-90
2023/07/12 19:54:41;;;;;;;21.00;19.48;;;27.60;99.90;;;;;;4940664;29;20082;-93
2023/07/12 19:57:19;;;;;;;20.15;18.70;;;27.60;99.90;;;;;;4941497;29;20049;-91
2023/07/12 19:59:46;;;;;;;19.85;18.48;;;27.50;99.90;;;;;;4945636;29;20043;-89
2023/07/12 20:02:17;;;;;;;20.13;18.55;;;27.40;99.90;;;;;;4941460;29;20035;-93
2023/07/12 20:04:44;;;;;;;19.50;18.20;;;27.40;99.90;;;;;;4939916;29;20035;-91
2023/07/12 20:07:10;;;;;;;19.83;18.48;;;27.30;99.90;;;;;;4939579;29;20035;-93
2023/07/12 20:09:37;;;;;;;19.60;18.20;;;27.30;99.90;;;;;;4940241;29;20035;-90
2023/07/12 20:12:04;;;;;;;19.65;18.35;;;27.30;99.90;;;;;;4940268;29;20019;-92
2023/07/12 20:14:35;;;;;;;19.17;17.88;;;27.30;99.90;;;;;;4939486;29;20547;-89
2023/07/12 20:17:03;;;;;;;19.90;18.58;;;27.20;99.90;;;;;;4939594;29;20031;-89
2023/07/12 20:19:30;;;;;;;19.40;17.98;;;27.30;99.90;;;;;;4939240;29;20047;-89
2023/07/12 20:21:57;;;;;;;19.58;18.27;;;27.20;99.90;;;;;;4939305;29;20031;-90
2023/07/12 20:24:25;;;;;;;19.30;17.88;;;27.30;99.90;;;;;;4939514;29;20039;-92
2023/07/12 20:26:52;;;;;;;20.30;18.80;;;27.20;99.90;;;;;;4955186;28;20055;-91
2023/07/12 21:39:27;;;;;;;19.15;17.95;;;26.50;99.90;;;;;;5940498;23;20049;-87
2023/07/12 21:41:54;;;;;;;19.77;18.48;;;26.40;99.90;;;;;;4999427;28;20490;-86
2023/07/12 21:44:20;;;;;;;20.75;19.20;;;26.40;99.90;;;;;;4980625;28;20036;-87
2023/07/12 21:46:47;;;;;;;20.27;18.98;;;26.30;99.90;;;;;;4980920;28;20426;-88
2023/07/12 21:49:13;;;;;;;20.42;19.02;;;26.20;99.90;;;;;;4980634;28;20046;-87
2023/07/12 21:51:40;;;;;;;20.15;18.70;;;26.10;99.90;;;;;;4980698;28;20030;-87
2023/07/12 21:54:07;;;;;;;20.52;19.23;;;26.00;99.90;;;;;;4980609;28;20053;-89
2023/07/12 21:56:33;;;;;;;21.15;19.83;;;26.00;99.90;;;;;;4996778;28;20509;-88
2023/07/12 21:59:00;;;;;;;21.25;19.73;;;25.90;99.90;;;;;;4996545;28;20033;-88
2023/07/12 22:01:27;;;;;;;21.17;19.77;;;25.80;99.90;;;;;;4980223;28;20026;-87
2023/07/12 22:03:53;;;;;;;21.58;19.77;;;25.80;99.90;;;;;;4980432;28;20069;-89
2023/07/12 22:06:21;;;;;;;21.38;19.98;;;25.70;99.90;;;;;;4980209;28;20110;-88
2023/07/12 22:08:47;;;;;;;21.27;19.88;;;25.70;99.90;;;;;;4979985;28;20037;-88
2023/07/12 22:11:18;;;;;;;21.85;20.40;;;25.60;99.90;;;;;;4979516;28;20038;-87
2023/07/12 22:13:49;;;;;;;21.88;20.33;;;25.50;99.90;;;;;;4983061;28;20030;-87
2023/07/12 22:16:18;;;;;;;20.88;19.67;;;25.50;99.90;;;;;;4983258;28;20030;-87
2023/07/12 22:18:45;;;;;;;23.10;21.25;;;25.40;99.90;;;;;;4983210;28;20084;-87
2023/07/12 22:21:14;;;;;;;22.45;20.75;;;25.40;99.90;;;;;;4983088;28;20513;-88
2023/07/12 22:23:42;;;;;;;23.13;21.00;;;25.40;99.90;;;;;;4999465;28;20070;-87
2023/07/12 22:26:12;;;;;;;22.17;20.48;;;25.40;99.90;;;;;;4983081;28;20556;-87
2023/07/12 22:28:38;;;;;;;22.20;20.38;;;25.40;99.90;;;;;;4983000;28;20026;-88
2023/07/12 22:31:05;;;;;;;21.55;20.20;;;25.40;99.90;;;;;;4982918;28;20057;-87
2023/07/12 22:33:31;;;;;;;21.38;19.95;;;25.50;99.90;;;;;;4982871;28;20025;-89
2023/07/12 22:35:58;;;;;;;21.63;20.13;;;25.50;99.90;;;;;;4982685;28;20055;-88
2023/07/12 22:38:25;;;;;;;21.55;19.95;;;25.60;99.90;;;;;;4982672;28;20094;-86
2023/07/12 22:40:51;;;;;;;22.42;20.52;;;25.70;99.90;;;;;;4982695;28;20054;-87
2023/07/12 22:43:18;;;;;;;21.13;19.63;;;25.70;99.90;;;;;;4982852;28;20042;-87
2023/07/12 22:45:44;;;;;;;21.60;20.08;;;25.80;99.90;;;;;;4982619;28;20032;-88
2023/07/12 22:48:11;;;;;;;21.40;19.80;;;25.80;99.90;;;;;;4979343;28;20030;-88
2023/07/12 22:50:37;;;;;;;21.02;19.48;;;25.80;99.90;;;;;;4978259;28;20439;-87
2023/07/12 22:53:04;;;;;;;20.80;19.42;;;25.80;99.90;;;;;;4983719;28;20502;-86
2023/07/12 22:55:32;;;;;;;22.10;20.48;;;25.70;99.90;;;;;;4982384;28;20029;-88
2023/07/12 22:57:59;;;;;;;22.10;20.27;;;25.70;99.90;;;;;;4982582;28;20436;-89
2023/07/12 23:00:26;;;;;;;22.00;20.42;;;25.60;99.90;;;;;;4982483;28;20029;-89
2023/07/12 23:02:52;;;;;;;22.15;20.25;;;25.60;99.90;;;;;;4981968;28;20081;-88
2023/07/12 23:05:20;;;;;;;20.50;19.17;;;25.50;99.90;;;;;;4982415;28;20030;-87
2023/07/12 23:07:47;;;;;;;21.60;20.00;;;25.50;99.90;;;;;;4982273;28;20034;-87
2023/07/12 23:10:15;;;;;;;20.88;19.38;;;25.60;99.90;;;;;;4982437;28;20109;-87
2023/07/12 23:12:42;;;;;;;21.00;19.58;;;25.40;99.90;;;;;;4982212;28;20029;-87
2023/07/12 23:15:13;;;;;;;20.80;19.40;;;25.30;99.90;;;;;;4982117;28;20034;-87
2023/07/12 23:17:44;;;;;;;20.33;18.92;;;25.20;99.90;;;;;;4982447;28;20040;-88
2023/07/12 23:20:13;;;;;;;20.05;18.65;;;25.00;99.90;;;;;;4982146;28;20026;-88
2023/07/12 23:22:40;;;;;;;19.75;18.45;;;24.90;99.90;;;;;;4981139;28;20030;-88
2023/07/12 23:25:07;;;;;;;20.50;18.95;;;24.70;99.90;;;;;;4982117;28;20556;-89
2023/07/12 23:27:35;;;;;;;20.45;18.85;;;24.60;99.90;;;;;;4981787;28;20029;-88
2023/07/12 23:30:02;;;;;;;20.02;18.63;;;24.40;99.90;;;;;;4982003;28;20057;-89
2023/07/12 23:32:29;;;;;;;20.65;18.95;;;24.30;99.90;;;;;;4982067;28;20117;-90
2023/07/12 23:34:57;;;;;;;19.95;18.45;;;24.20;99.90;;;;;;4982190;28;20030;-89
2023/07/12 23:37:29;;;;;;;20.23;18.73;;;24.10;99.90;;;;;;4981899;28;20048;-90
2023/07/12 23:39:56;;;;;;;19.15;17.65;;;24.10;99.90;;;;;;4985426;28;20107;-90
2023/07/12 23:42:22;;;;;;;18.90;17.40;;;24.10;99.90;;;;;;5001089;28;20073;-90
2023/07/12 23:44:50;;;;;;;17.77;16.33;;;24.10;99.90;;;;;;5001360;28;20029;-92
2023/07/12 23:47:17;;;;;;;17.95;16.35;;;24.00;99.90;;;;;;5001227;28;20032;-91
2023/07/12 23:49:43;;;;;;;17.20;15.85;;;24.00;99.90;;;;;;5017623;28;20120;-91
2023/07/12 23:52:13;;;;;;;17.23;15.90;;;24.00;99.90;;;;;;4996949;28;20025;-91
2023/07/12 23:54:39;;;;;;;16.67;15.48;;;24.00;99.90;;;;;;5001120;28;20033;-89
2023/07/12 23:57:06;;;;;;;16.30;15.20;;;24.00;99.90;;;;;;5001007;28;20029;-94
2023/07/12 23:59:32;;;;;;;15.77;14.68;;;24.00;99.90;;;;;;5001336;28;20079;-94
